KLYH/LYH METAR and TAF weather

Enter ICAO airport designator
Station Type Date Time Source
KLYH METAR 2021/05/15 00:54 UTC NOAA

KLYH 150054Z 00000KT 10SM FEW110 13/04 A3025 RMK AO2 SLP240 T01280039


Station Type Date Time Source
KLYH Decoded METAR 2021/05/15 00:54 UTC NOAA

LYNCHBURG REGIONAL AIRPORT, VA, United States (KLYH) 37-19N 079-12W 295M
May 14, 2021 - 08:54 PM EDT / 2021.05.15 0054 UTC
Wind: Calm:0
Visibility: 10 mile(s):0
Sky conditions: mostly clear
Temperature: 55.0 F (12.8 C)
Dew Point: 39.0 F (3.9 C)
Relative Humidity: 54%
Pressure (altimeter): 30.25 in. Hg (1024 hPa)
ob: KLYH 150054Z 00000KT 10SM FEW110 13/04 A3025 RMK AO2 SLP240 T01280039
cycle: 1

Station Type Date Time Source
KLYH TAF 2021/05/14 18:21 UTC NOAA

TAF KLYH 141720Z 1418/1518 VRB05KT P6SM BKN100
FM150100 VRB03KT P6SM SCT100
FM150600 00000KT P6SM FEW250

Example: see airport list